Time;durP1;ratioP1;P1;durP2;ratioP2;P2;SDS_P1;SDS_P2;PMS_P1;PMS_P2;Temp;Humidity;BMP_temperature;BMP_pressure;BME280_temperature;BME280_humidity;BME280_pressure;Samples;Min_cycle;Max_cycle;Signal;HPM_P1;HPM_P2
2022/11/28 00:01:29;;;;;;;3.67;3.38;;;20.90;41.10;;;;;;5028779;28;20046;-64
2022/11/28 00:03:57;;;;;;;4.75;3.75;;;20.80;41.00;;;;;;5010907;28;20502;-64
2022/11/28 00:06:25;;;;;;;3.33;3.03;;;20.90;41.10;;;;;;5027921;28;20049;-64
2022/11/28 00:08:53;;;;;;;4.32;3.25;;;20.90;41.10;;;;;;5028523;28;20545;-64
2022/11/28 00:11:20;;;;;;;3.25;2.90;;;20.90;41.10;;;;;;5010676;28;20107;-64
2022/11/28 00:13:47;;;;;;;3.45;3.15;;;20.90;41.10;;;;;;4990718;28;20053;-64
2022/11/28 00:16:20;;;;;;;4.25;3.13;;;20.90;41.10;;;;;;5009110;28;20516;-64
2022/11/28 00:18:48;;;;;;;4.18;3.60;;;20.90;41.10;;;;;;5007994;28;20061;-64
2022/11/28 00:21:16;;;;;;;3.10;2.80;;;20.90;41.10;;;;;;5008978;28;20136;-64
2022/11/28 00:23:44;;;;;;;4.40;3.45;;;20.90;41.10;;;;;;5003805;28;20042;-64
2022/11/28 00:26:22;;;;;;;4.15;3.28;;;20.90;41.10;;;;;;4991524;28;20327;-64
2022/11/28 00:28:49;;;;;;;3.80;3.35;;;20.90;41.10;;;;;;4991250;28;20054;-64
2022/11/28 00:31:20;;;;;;;3.38;2.90;;;20.90;41.10;;;;;;5007524;28;20046;-64
2022/11/28 00:33:48;;;;;;;4.13;3.42;;;20.90;41.10;;;;;;5008942;28;20054;-64
2022/11/28 00:36:15;;;;;;;5.20;3.78;;;20.90;41.10;;;;;;5008377;28;20492;-64
2022/11/28 00:38:42;;;;;;;3.92;3.20;;;20.80;41.10;;;;;;5008428;28;20050;-64
2022/11/28 00:41:16;;;;;;;3.38;3.08;;;20.90;41.10;;;;;;5008366;28;20512;-64
2022/11/28 00:43:45;;;;;;;3.72;3.03;;;20.80;41.10;;;;;;5008020;28;20418;-64
2022/11/28 00:46:14;;;;;;;4.13;3.42;;;20.90;41.10;;;;;;5008409;28;20045;-64
2022/11/28 00:48:41;;;;;;;4.10;3.30;;;20.80;41.10;;;;;;5007634;28;20135;-64
2022/11/28 00:51:14;;;;;;;3.55;3.08;;;20.80;41.10;;;;;;5008574;28;20042;-65
2022/11/28 00:53:44;;;;;;;3.80;3.42;;;20.80;41.10;;;;;;4990452;28;20053;-64
2022/11/28 00:56:13;;;;;;;4.50;3.35;;;20.80;41.10;;;;;;5004148;28;20050;-64
2022/11/28 00:58:41;;;;;;;3.72;3.10;;;20.80;41.10;;;;;;5012678;28;20073;-64
2022/11/28 01:01:31;;;;;;;4.28;3.55;;;20.90;41.20;;;;;;5011709;28;20050;-64
2022/11/28 01:04:01;;;;;;;3.65;2.85;;;20.80;41.10;;;;;;5012272;28;20076;-64
2022/11/28 01:06:34;;;;;;;3.58;2.97;;;20.80;41.10;;;;;;4994324;28;20056;-64
2022/11/28 01:09:05;;;;;;;4.32;3.67;;;20.90;41.20;;;;;;5012011;28;20065;-64
2022/11/28 01:11:32;;;;;;;4.72;3.47;;;20.90;41.20;;;;;;5012239;28;20427;-64
2022/11/28 01:14:00;;;;;;;3.40;3.10;;;20.80;41.10;;;;;;4994772;28;20335;-63
2022/11/28 01:16:29;;;;;;;4.60;3.42;;;20.80;41.10;;;;;;5012091;28;20054;-64
2022/11/28 01:18:57;;;;;;;5.30;3.75;;;20.80;41.10;;;;;;5011067;28;20214;-64
2022/11/28 01:21:25;;;;;;;4.85;3.53;;;20.80;41.10;;;;;;5011736;28;20050;-64
2022/11/28 01:23:52;;;;;;;3.78;3.30;;;20.80;41.10;;;;;;5011982;28;20053;-64
2022/11/28 01:26:23;;;;;;;3.72;3.05;;;20.80;41.20;;;;;;4994110;28;20042;-64
2022/11/28 01:28:51;;;;;;;4.28;3.25;;;20.80;41.20;;;;;;5011840;28;20049;-64
2022/11/28 01:31:21;;;;;;;4.45;3.65;;;20.80;41.20;;;;;;5006336;28;20290;-64
2022/11/28 01:33:49;;;;;;;3.40;3.10;;;20.80;41.20;;;;;;4994606;28;20136;-64
2022/11/28 01:36:18;;;;;;;4.03;3.33;;;20.80;41.20;;;;;;5011496;28;20050;-65
2022/11/28 01:38:45;;;;;;;3.60;3.28;;;20.80;41.20;;;;;;5011486;28;20046;-64
2022/11/28 01:41:14;;;;;;;4.53;3.47;;;20.80;41.20;;;;;;4994074;28;20050;-64
2022/11/28 01:44:03;;;;;;;4.30;3.90;;;20.80;41.20;;;;;;5010978;28;20054;-64
2022/11/28 01:46:31;;;;;;;3.85;3.00;;;20.80;41.20;;;;;;5019858;28;20057;-64
2022/11/28 01:49:11;;;;;;;4.35;3.80;;;20.80;41.20;;;;;;5030324;28;20042;-64
2022/11/28 01:51:41;;;;;;;3.63;3.30;;;20.80;41.20;;;;;;5015155;28;20487;-64
2022/11/28 01:54:08;;;;;;;3.42;3.05;;;20.80;41.20;;;;;;5030965;28;20049;-64
2022/11/28 01:56:46;;;;;;;4.85;3.78;;;20.80;41.20;;;;;;5031010;28;20057;-64
2022/11/28 01:59:14;;;;;;;4.20;3.35;;;20.80;41.20;;;;;;5013241;28;20507;-64
2022/11/28 02:01:43;;;;;;;5.38;4.03;;;20.80;41.20;;;;;;5030880;28;20480;-64
2022/11/28 02:04:12;;;;;;;4.20;3.78;;;20.80;41.20;;;;;;5030946;28;20579;-64
2022/11/28 02:06:41;;;;;;;4.25;3.72;;;20.80;41.20;;;;;;5025339;28;20080;-64
2022/11/28 02:09:14;;;;;;;5.03;4.22;;;20.80;41.30;;;;;;5011776;28;20354;-64
2022/11/28 02:12:18;;;;;;;5.03;3.83;;;20.80;41.20;;;;;;5013439;28;20056;-64
2022/11/28 02:15:10;;;;;;;3.88;3.40;;;20.80;41.30;;;;;;5017953;28;20049;-64
2022/11/28 02:18:06;;;;;;;4.60;3.58;;;20.80;41.20;;;;;;5030798;28;20065;-64
2022/11/28 02:21:02;;;;;;;5.63;4.10;;;20.80;41.20;;;;;;5030265;28;20487;-64
2022/11/28 02:24:08;;;;;;;4.78;4.00;;;20.80;41.20;;;;;;5031071;28;20071;-64
2022/11/28 02:27:15;;;;;;;3.83;3.20;;;20.80;41.20;;;;;;5015695;28;20049;-64
2022/11/28 02:30:13;;;;;;;4.40;3.85;;;20.80;41.20;;;;;;5018499;28;20089;-64
2022/11/28 02:33:06;;;;;;;4.60;3.85;;;20.80;41.20;;;;;;5029831;28;20571;-64
2022/11/28 02:35:41;;;;;;;4.82;3.38;;;20.80;41.20;;;;;;5016168;28;20446;-64
2022/11/28 02:38:33;;;;;;;4.18;3.78;;;20.80;41.20;;;;;;5030243;28;20465;-64
2022/11/28 02:41:40;;;;;;;5.00;3.90;;;20.80;41.20;;;;;;5010981;28;20069;-64
2022/11/28 02:44:18;;;;;;;3.90;3.50;;;20.80;41.20;;;;;;5015012;28;20054;-64
2022/11/28 02:46:58;;;;;;;4.00;3.50;;;20.80;41.20;;;;;;5030203;28;20050;-64
2022/11/28 02:49:31;;;;;;;4.72;3.67;;;20.80;41.20;;;;;;5029684;28;20049;-64
2022/11/28 02:52:07;;;;;;;4.40;3.58;;;20.80;41.30;;;;;;5029680;28;20075;-64
2022/11/28 02:54:37;;;;;;;4.18;3.45;;;20.80;41.20;;;;;;5029903;28;20495;-64
2022/11/28 02:57:04;;;;;;;6.00;3.93;;;20.80;41.20;;;;;;5011960;28;20407;-64
2022/11/28 02:59:48;;;;;;;5.40;3.92;;;20.80;41.20;;;;;;5030120;28;20128;-64
2022/11/28 03:02:21;;;;;;;4.63;3.70;;;20.70;41.20;;;;;;5029184;28;20045;-64
2022/11/28 03:05:16;;;;;;;5.05;3.58;;;20.80;41.30;;;;;;5029872;28;20507;-64
2022/11/28 03:08:08;;;;;;;4.63;3.90;;;20.80;41.30;;;;;;5015690;28;20046;-64
2022/11/28 03:10:47;;;;;;;4.50;3.88;;;20.70;41.30;;;;;;5030159;28;20045;-64
2022/11/28 03:13:40;;;;;;;4.60;3.88;;;20.80;41.40;;;;;;5027791;28;20382;-64
2022/11/28 03:16:27;;;;;;;4.97;3.88;;;20.70;41.20;;;;;;5029940;28;20049;-64
2022/11/28 03:19:18;;;;;;;4.60;4.10;;;20.70;41.30;;;;;;5028473;28;20049;-64
2022/11/28 03:22:05;;;;;;;;;;;20.70;41.30;;;;;;5011987;28;20054;-64
2022/11/28 03:24:47;;;;;;;4.25;3.70;;;20.70;41.30;;;;;;5016392;28;19926;-67
2022/11/28 03:27:29;;;;;;;4.03;3.63;;;20.70;41.30;;;;;;5009430;28;20053;-64
2022/11/28 03:30:07;;;;;;;3.80;3.45;;;20.70;41.30;;;;;;5009219;28;20042;-64
2022/11/28 03:32:37;;;;;;;5.18;4.10;;;20.70;41.30;;;;;;5009444;28;20072;-65
2022/11/28 03:35:13;;;;;;;4.70;4.22;;;20.70;41.30;;;;;;5009548;28;20513;-64
2022/11/28 03:37:53;;;;;;;5.95;4.57;;;20.70;41.30;;;;;;5009107;28;20049;-64
2022/11/28 03:40:26;;;;;;;4.40;3.83;;;20.70;41.30;;;;;;5009718;28;20049;-64
2022/11/28 03:42:58;;;;;;;4.25;3.53;;;20.70;41.30;;;;;;5009291;28;20046;-64
2022/11/28 03:45:30;;;;;;;4.60;3.65;;;20.70;41.30;;;;;;5008238;28;20046;-64
2022/11/28 03:48:02;;;;;;;5.88;4.15;;;20.70;41.30;;;;;;5004561;28;20046;-64
2022/11/28 03:50:37;;;;;;;4.70;3.25;;;20.70;41.30;;;;;;5008980;28;20397;-64
2022/11/28 03:53:20;;;;;;;5.65;3.88;;;20.70;41.30;;;;;;5009284;28;20049;-64
2022/11/28 03:55:54;;;;;;;4.78;3.60;;;20.70;41.30;;;;;;5007989;28;20515;-64
2022/11/28 03:58:35;;;;;;;5.72;3.95;;;20.70;41.30;;;;;;5009154;28;20069;-64
2022/11/28 04:01:13;;;;;;;4.28;3.60;;;20.70;41.30;;;;;;5009011;28;20069;-64
2022/11/28 04:03:57;;;;;;;3.72;3.28;;;20.70;41.40;;;;;;5009466;28;20419;-65
2022/11/28 04:06:35;;;;;;;4.25;3.75;;;20.70;41.40;;;;;;5008734;28;20055;-64
2022/11/28 04:09:42;;;;;;;4.78;3.80;;;20.70;41.40;;;;;;5008397;28;20057;-64
2022/11/28 04:12:20;;;;;;;4.45;3.60;;;20.60;41.40;;;;;;4997353;28;20054;-64
2022/11/28 04:14:54;;;;;;;4.63;3.80;;;20.60;41.30;;;;;;5008806;28;20041;-65
2022/11/28 04:17:36;;;;;;;5.35;4.07;;;20.60;41.30;;;;;;4992154;28;20620;-64
2022/11/28 04:20:14;;;;;;;5.40;3.97;;;20.60;41.30;;;;;;4986736;28;20053;-64
2022/11/28 04:22:50;;;;;;;4.63;3.92;;;20.70;41.40;;;;;;5008832;28;20050;-64
2022/11/28 04:25:20;;;;;;;4.30;3.70;;;20.70;41.40;;;;;;4990938;28;20476;-64
2022/11/28 04:27:55;;;;;;;3.60;3.30;;;20.60;41.40;;;;;;5008503;28;20050;-65
2022/11/28 04:30:22;;;;;;;4.90;3.83;;;20.70;41.40;;;;;;5007940;28;20046;-64
2022/11/28 04:32:54;;;;;;;4.05;3.40;;;20.70;41.40;;;;;;5008046;28;20050;-64
2022/11/28 04:35:36;;;;;;;5.28;4.10;;;20.70;41.40;;;;;;5008288;28;20100;-64
2022/11/28 04:38:05;;;;;;;4.07;3.55;;;20.60;41.30;;;;;;5007979;28;20050;-64
2022/11/28 04:40:37;;;;;;;3.70;3.30;;;20.70;41.40;;;;;;5008668;28;20403;-64
2022/11/28 04:43:09;;;;;;;5.95;4.07;;;20.70;41.40;;;;;;5007937;28;20050;-64
2022/11/28 04:45:42;;;;;;;4.70;3.67;;;20.70;41.40;;;;;;4988728;28;20054;-64
2022/11/28 04:48:10;;;;;;;4.95;3.97;;;20.70;41.30;;;;;;4988667;28;20117;-64
2022/11/28 04:50:48;;;;;;;4.28;3.63;;;20.70;41.30;;;;;;4988656;28;20065;-64
2022/11/28 04:53:31;;;;;;;4.53;3.83;;;20.70;41.30;;;;;;4988319;28;20048;-64
2022/11/28 04:56:03;;;;;;;4.70;3.95;;;20.70;41.30;;;;;;4966355;28;20058;-64
2022/11/28 04:58:35;;;;;;;5.15;4.30;;;20.70;41.30;;;;;;4990719;28;20054;-64
2022/11/28 05:01:08;;;;;;;3.90;3.50;;;20.70;41.30;;;;;;4974362;28;20407;-64
2022/11/28 05:03:37;;;;;;;4.03;3.35;;;20.60;41.30;;;;;;5004103;28;20204;-64
2022/11/28 05:06:08;;;;;;;5.15;3.70;;;20.60;41.30;;;;;;5002847;28;20485;-64
2022/11/28 05:08:35;;;;;;;5.07;4.07;;;20.60;41.30;;;;;;5006913;28;20081;-64
2022/11/28 05:11:03;;;;;;;4.32;3.55;;;20.70;41.30;;;;;;4990927;28;20050;-64
2022/11/28 05:13:30;;;;;;;3.90;3.47;;;20.60;41.30;;;;;;5007826;28;20042;-64
2022/11/28 05:15:59;;;;;;;4.22;3.50;;;20.70;41.30;;;;;;5008251;28;20081;-65
2022/11/28 05:18:26;;;;;;;4.07;3.42;;;20.60;41.30;;;;;;5007862;28;20120;-64
2022/11/28 05:20:54;;;;;;;4.72;3.58;;;20.60;41.30;;;;;;5006583;28;20045;-65
2022/11/28 05:23:21;;;;;;;4.28;3.17;;;20.60;41.30;;;;;;5001900;28;20050;-64
2022/11/28 05:25:48;;;;;;;3.60;3.30;;;20.60;41.30;;;;;;5004210;28;20506;-64
2022/11/28 05:28:15;;;;;;;4.18;3.53;;;20.60;41.30;;;;;;4989465;28;20049;-64
2022/11/28 05:30:42;;;;;;;5.20;3.85;;;20.60;41.30;;;;;;5003042;28;20041;-64
2022/11/28 05:33:09;;;;;;;3.95;3.00;;;20.60;41.30;;;;;;4988642;28;20455;-65
2022/11/28 05:35:38;;;;;;;4.18;3.33;;;20.60;41.30;;;;;;5007027;28;20049;-64
2022/11/28 05:38:05;;;;;;;5.40;4.53;;;20.60;41.20;;;;;;4989423;28;20049;-64
2022/11/28 05:40:43;;;;;;;5.20;4.07;;;20.60;41.00;;;;;;4982938;28;20078;-64
2022/11/28 05:43:10;;;;;;;6.07;4.20;;;20.60;40.70;;;;;;5009512;28;20084;-64
2022/11/28 05:45:42;;;;;;;6.35;4.85;;;20.60;40.60;;;;;;5012982;28;20550;-64
2022/11/28 05:48:09;;;;;;;7.65;5.15;;;20.60;40.60;;;;;;4991917;28;20487;-64
2022/11/28 05:50:40;;;;;;;6.78;4.90;;;20.60;40.60;;;;;;5009232;28;20045;-65
2022/11/28 05:53:08;;;;;;;8.48;4.40;;;20.60;40.60;;;;;;5008616;28;20488;-65
2022/11/28 05:55:38;;;;;;;7.50;4.70;;;20.60;40.60;;;;;;5006015;28;20045;-65
2022/11/28 05:58:05;;;;;;;6.15;4.22;;;20.60;40.60;;;;;;5010163;28;20042;-65
2022/11/28 06:00:32;;;;;;;6.65;5.05;;;20.60;40.50;;;;;;5007945;28;20404;-65
2022/11/28 06:02:59;;;;;;;5.88;4.22;;;20.70;40.40;;;;;;5004982;28;20046;-66
2022/11/28 06:05:27;;;;;;;5.85;4.32;;;20.70;40.30;;;;;;5009990;28;20050;-65
2022/11/28 06:08:11;;;;;;;6.15;3.90;;;20.70;40.30;;;;;;5008958;28;20647;-64
2022/11/28 06:10:38;;;;;;;6.65;4.72;;;20.70;40.20;;;;;;5007684;28;20049;-63
2022/11/28 06:13:05;;;;;;;6.47;4.65;;;20.70;40.10;;;;;;5005600;28;20050;-63
2022/11/28 06:15:33;;;;;;;6.22;4.40;;;20.80;40.00;;;;;;5008800;28;20050;-63
2022/11/28 06:18:04;;;;;;;6.13;4.30;;;20.80;40.00;;;;;;5002543;28;20049;-63
2022/11/28 06:20:34;;;;;;;5.45;4.10;;;20.80;39.90;;;;;;4997482;28;20045;-63
2022/11/28 06:23:01;;;;;;;9.25;5.30;;;20.80;39.90;;;;;;4975800;28;20053;-65
2022/11/28 06:25:28;;;;;;;8.85;5.63;;;20.80;39.80;;;;;;5004438;28;20156;-63
2022/11/28 06:27:55;;;;;;;8.00;5.07;;;20.90;39.70;;;;;;5001525;28;20058;-62
2022/11/28 06:30:22;;;;;;;7.57;5.35;;;20.90;39.50;;;;;;4999082;28;20056;-63
2022/11/28 06:32:49;;;;;;;9.45;5.07;;;21.00;39.50;;;;;;4997672;28;20507;-62
2022/11/28 06:35:16;;;;;;;8.65;5.75;;;21.00;39.40;;;;;;4997335;28;20050;-63
2022/11/28 06:37:44;;;;;;;5.93;4.75;;;21.10;39.30;;;;;;4996168;28;20054;-64
2022/11/28 06:40:11;;;;;;;7.95;5.85;;;21.20;39.30;;;;;;5003058;28;20054;-66
2022/11/28 06:42:39;;;;;;;10.15;5.32;;;21.20;39.20;;;;;;5002489;28;20050;-62
2022/11/28 06:45:07;;;;;;;7.80;5.55;;;21.20;39.10;;;;;;4995957;28;20050;-60
2022/11/28 06:47:34;;;;;;;10.10;6.53;;;21.30;39.20;;;;;;5003554;28;20076;-61
2022/11/28 06:50:01;;;;;;;8.43;5.65;;;21.40;39.10;;;;;;5000319;28;20133;-62
2022/11/28 06:52:29;;;;;;;10.88;5.35;;;21.40;39.20;;;;;;4999480;28;20561;-62
2022/11/28 06:54:56;;;;;;;11.70;5.78;;;21.50;39.70;;;;;;4994755;28;20058;-61
2022/11/28 06:57:23;;;;;;;9.40;5.70;;;21.50;39.90;;;;;;4998131;28;20486;-62
2022/11/28 06:59:50;;;;;;;10.85;6.25;;;21.50;39.90;;;;;;4998950;28;20464;-62
2022/11/28 07:02:18;;;;;;;10.45;5.55;;;21.60;40.00;;;;;;4996474;28;20700;-62
2022/11/28 07:04:45;;;;;;;8.00;5.75;;;21.60;39.60;;;;;;4998425;28;20137;-64
2022/11/28 07:07:12;;;;;;;10.35;5.90;;;21.60;39.60;;;;;;4994297;28;20132;-61
2022/11/28 07:09:42;;;;;;;;;;;21.60;39.70;;;;;;4998830;28;20132;-61
2022/11/28 07:12:10;;;;;;;12.30;6.45;;;21.70;39.80;;;;;;4998285;28;20264;-61
2022/11/28 07:14:38;;;;;;;10.73;6.60;;;21.70;39.90;;;;;;4997446;28;20069;-63
2022/11/28 07:17:05;;;;;;;9.95;6.25;;;21.70;39.80;;;;;;5001705;28;20045;-62
2022/11/28 07:19:33;;;;;;;9.43;6.45;;;21.80;39.90;;;;;;5002239;28;20041;-62
2022/11/28 07:22:00;;;;;;;9.57;5.60;;;21.80;40.00;;;;;;5002708;28;20132;-62
2022/11/28 07:24:28;;;;;;;10.55;6.32;;;21.80;40.00;;;;;;4998190;28;20054;-65
2022/11/28 07:26:57;;;;;;;9.05;6.13;;;21.80;39.90;;;;;;4999491;28;20060;-63
2022/11/28 07:29:24;;;;;;;10.65;6.57;;;21.90;39.90;;;;;;5001862;28;20056;-63
2022/11/28 07:31:51;;;;;;;10.90;7.20;;;21.90;39.50;;;;;;4997035;28;20050;-62
2022/11/28 07:34:18;;;;;;;10.02;6.07;;;21.90;39.40;;;;;;4997466;28;20060;-64
2022/11/28 07:36:47;;;;;;;12.65;6.20;;;22.00;39.60;;;;;;5002701;28;20053;-64
2022/11/28 07:39:16;;;;;;;9.50;6.20;;;22.00;39.90;;;;;;5000139;28;20051;-61
2022/11/28 07:41:43;;;;;;;9.35;5.97;;;22.00;39.90;;;;;;4996464;28;20057;-61
2022/11/28 07:44:11;;;;;;;11.85;6.57;;;22.10;39.90;;;;;;4994290;28;20609;-62
2022/11/28 07:46:38;;;;;;;10.70;5.45;;;22.10;39.80;;;;;;5001600;28;20050;-61
2022/11/28 07:49:06;;;;;;;9.57;6.43;;;22.10;39.70;;;;;;5000196;28;20116;-63
2022/11/28 07:51:33;;;;;;;8.65;5.90;;;22.20;39.90;;;;;;4994478;28;20488;-61
2022/11/28 07:54:02;;;;;;;8.95;6.40;;;22.20;39.80;;;;;;4982906;28;20427;-62
2022/11/28 07:56:31;;;;;;;11.35;6.80;;;22.20;39.70;;;;;;4986283;28;20400;-61
2022/11/28 07:59:18;;;;;;;9.43;6.45;;;22.30;39.70;;;;;;4998259;28;20049;-63
2022/11/28 08:01:47;;;;;;;11.88;6.82;;;22.30;39.70;;;;;;4999665;28;20057;-60
2022/11/28 08:04:14;;;;;;;11.32;7.00;;;22.40;39.60;;;;;;4994980;28;20053;-64
2022/11/28 08:06:43;;;;;;;9.10;6.28;;;22.40;39.40;;;;;;4996984;28;20583;-63
2022/11/28 08:09:13;;;;;;;12.00;6.15;;;22.40;39.30;;;;;;5002320;28;20037;-62
2022/11/28 08:11:40;;;;;;;12.02;6.15;;;22.50;39.20;;;;;;4995667;28;20068;-61
2022/11/28 08:14:08;;;;;;;13.43;7.00;;;22.50;39.30;;;;;;4997256;28;20238;-61
2022/11/28 08:16:35;;;;;;;10.98;6.80;;;22.50;39.30;;;;;;4992055;28;20046;-61
2022/11/28 08:19:03;;;;;;;13.50;6.78;;;22.60;39.30;;;;;;4994917;28;20068;-61
2022/11/28 08:21:32;;;;;;;11.38;6.75;;;22.60;39.20;;;;;;4996536;28;20046;-60
2022/11/28 08:24:01;;;;;;;8.80;6.15;;;22.70;39.20;;;;;;5001760;28;20517;-60
2022/11/28 08:26:30;;;;;;;11.98;7.22;;;22.70;39.20;;;;;;4998858;28;20041;-61
2022/11/28 08:28:58;;;;;;;10.80;6.73;;;22.80;39.70;;;;;;5000736;28;20128;-61
2022/11/28 08:31:29;;;;;;;10.82;6.70;;;22.80;39.10;;;;;;4999328;28;20302;-62
2022/11/28 08:33:58;;;;;;;15.32;6.82;;;22.80;39.20;;;;;;4984700;28;20464;-63
2022/11/28 08:36:26;;;;;;;12.38;6.68;;;22.90;39.20;;;;;;5000525;28;20085;-63
2022/11/28 08:38:55;;;;;;;8.77;6.10;;;22.90;39.20;;;;;;4998743;28;20049;-63
2022/11/28 08:41:42;;;;;;;8.93;6.32;;;23.00;39.20;;;;;;4998769;28;20054;-63
2022/11/28 08:44:10;;;;;;;9.80;6.63;;;23.00;39.20;;;;;;4999020;28;20159;-61
2022/11/28 08:46:38;;;;;;;11.13;7.07;;;23.10;39.20;;;;;;5000479;28;20054;-63
2022/11/28 08:49:06;;;;;;;13.75;7.25;;;23.10;39.10;;;;;;4991974;28;20104;-62
2022/11/28 08:51:33;;;;;;;12.38;6.97;;;23.10;39.00;;;;;;4999397;28;20061;-63
2022/11/28 08:54:00;;;;;;;7.82;6.35;;;23.10;38.90;;;;;;4996069;28;20053;-61
2022/11/28 08:56:28;;;;;;;12.27;6.85;;;23.20;38.80;;;;;;4982299;28;20396;-62
2022/11/28 08:58:55;;;;;;;11.02;6.22;;;23.20;38.70;;;;;;4997467;28;20064;-64
2022/11/28 09:01:24;;;;;;;8.68;6.70;;;23.30;38.40;;;;;;4992319;28;20448;-62
2022/11/28 09:03:52;;;;;;;8.10;6.07;;;23.30;38.40;;;;;;4996903;28;20439;-62
2022/11/28 09:06:21;;;;;;;11.48;7.28;;;23.30;38.30;;;;;;5000627;28;20137;-63
2022/11/28 09:08:49;;;;;;;8.93;6.32;;;23.40;38.20;;;;;;4978460;28;20053;-63
2022/11/28 09:11:19;;;;;;;9.40;7.00;;;23.40;38.00;;;;;;4998108;28;20132;-63
2022/11/28 09:13:46;;;;;;;9.73;7.00;;;23.40;37.80;;;;;;4995528;28;20049;-61
2022/11/28 09:16:14;;;;;;;10.63;6.55;;;23.40;37.90;;;;;;4998673;28;20054;-61
2022/11/28 09:18:42;;;;;;;11.93;7.20;;;23.50;37.80;;;;;;5001876;28;20123;-63
2022/11/28 09:21:11;;;;;;;11.38;6.60;;;23.50;37.60;;;;;;5002583;28;20145;-62
2022/11/28 09:23:40;;;;;;;9.83;6.40;;;23.60;37.60;;;;;;4996454;28;20076;-62
2022/11/28 09:26:16;;;;;;;9.18;6.72;;;23.60;37.60;;;;;;5005724;28;20045;-62
2022/11/28 09:28:45;;;;;;;13.43;6.70;;;23.60;37.60;;;;;;5000059;28;20068;-61
2022/11/28 09:31:13;;;;;;;13.18;6.85;;;23.70;37.60;;;;;;5003482;28;20050;-64
2022/11/28 09:33:41;;;;;;;11.15;7.22;;;23.70;37.50;;;;;;5001855;28;20042;-64
2022/11/28 09:36:14;;;;;;;9.90;6.22;;;23.70;37.40;;;;;;5001198;28;20046;-63
2022/11/28 09:38:41;;;;;;;10.63;7.32;;;23.70;37.30;;;;;;4994258;28;21837;-62
2022/11/28 09:41:48;;;;;;;9.10;6.53;;;23.70;37.30;;;;;;4980295;28;20268;-64
2022/11/28 09:44:23;;;;;;;9.38;6.22;;;23.70;37.20;;;;;;4998534;28;20054;-61
2022/11/28 09:46:54;;;;;;;9.35;7.07;;;23.70;37.20;;;;;;4999455;28;20046;-62
2022/11/28 09:49:48;;;;;;;11.10;6.68;;;23.80;37.80;;;;;;4999128;28;20388;-60
2022/11/28 09:52:27;;;;;;;11.32;7.57;;;23.90;37.10;;;;;;4999124;28;20054;-62
2022/11/28 09:55:25;;;;;;;11.40;7.50;;;23.90;37.10;;;;;;4993484;28;20076;-62
2022/11/28 09:57:54;;;;;;;10.68;6.93;;;23.90;37.00;;;;;;4998666;28;20078;-63
2022/11/28 10:00:33;;;;;;;9.45;6.65;;;23.90;37.00;;;;;;4997685;28;20064;-62
2022/11/28 10:03:16;;;;;;;9.32;6.88;;;23.90;36.90;;;;;;4996242;28;20495;-65
2022/11/28 10:06:10;;;;;;;11.40;7.07;;;23.90;36.80;;;;;;4997412;28;20073;-65
2022/11/28 10:09:02;;;;;;;8.98;6.68;;;24.00;36.50;;;;;;4984116;28;20432;-65
2022/11/28 10:12:07;;;;;;;11.95;7.13;;;24.00;36.40;;;;;;4995921;28;20061;-62
2022/11/28 10:15:05;;;;;;;11.05;7.60;;;24.00;36.20;;;;;;4998668;28;20076;-63
2022/11/28 10:18:10;;;;;;;11.70;7.00;;;24.00;36.20;;;;;;4999551;28;20058;-61
2022/11/28 10:20:42;;;;;;;10.20;7.05;;;24.00;36.50;;;;;;4985792;28;20085;-62
2022/11/28 10:23:33;;;;;;;9.35;7.28;;;24.10;36.60;;;;;;4994529;28;20049;-62
2022/11/28 10:26:12;;;;;;;10.50;6.85;;;24.10;36.60;;;;;;5000653;28;20058;-62
2022/11/28 10:28:45;;;;;;;12.57;7.30;;;24.10;36.50;;;;;;4976912;28;20403;-63
2022/11/28 10:31:34;;;;;;;10.55;6.93;;;24.10;36.50;;;;;;4997024;28;20045;-63
2022/11/28 10:34:25;;;;;;;9.32;6.47;;;24.10;36.40;;;;;;4982325;28;20069;-63
2022/11/28 10:37:15;;;;;;;12.48;6.95;;;24.10;36.40;;;;;;4996715;28;20088;-63
2022/11/28 10:39:44;;;;;;;12.10;7.65;;;24.20;36.40;;;;;;4996518;28;20164;-63
2022/11/28 10:42:30;;;;;;;10.82;7.18;;;24.20;36.30;;;;;;4995701;28;20050;-63
2022/11/28 10:45:37;;;;;;;13.65;6.93;;;24.20;36.10;;;;;;4999771;28;20042;-64
2022/11/28 10:48:22;;;;;;;10.40;6.75;;;24.20;36.30;;;;;;4985922;28;20149;-63
2022/11/28 10:51:14;;;;;;;;;;;24.20;36.20;;;;;;4997736;28;20050;-65
2022/11/28 10:53:58;;;;;;;11.63;7.50;;;24.30;36.10;;;;;;4998540;28;19945;-63
2022/11/28 10:56:46;;;;;;;9.68;7.35;;;24.30;36.20;;;;;;5001335;28;20068;-65
2022/11/28 10:59:53;;;;;;;14.77;8.38;;;24.30;36.20;;;;;;4983098;28;20060;-63
2022/11/28 11:02:31;;;;;;;10.23;7.72;;;24.30;36.00;;;;;;4981442;28;20057;-64
2022/11/28 11:04:58;;;;;;;10.43;7.50;;;24.30;35.80;;;;;;4998204;28;20050;-63
2022/11/28 11:07:29;;;;;;;10.10;6.97;;;24.40;35.80;;;;;;4984106;28;20081;-64
2022/11/28 11:10:13;;;;;;;11.38;8.02;;;24.30;35.70;;;;;;4983575;28;20884;-63
2022/11/28 11:12:41;;;;;;;10.93;7.57;;;24.40;35.70;;;;;;5001904;28;20141;-63
2022/11/28 11:15:22;;;;;;;10.50;7.75;;;24.40;35.70;;;;;;4982328;28;20504;-62
2022/11/28 11:17:50;;;;;;;9.73;7.75;;;24.40;35.60;;;;;;5002432;28;20088;-62
2022/11/28 11:20:30;;;;;;;12.52;7.82;;;24.40;35.40;;;;;;5000785;28;20053;-62
2022/11/28 11:23:14;;;;;;;11.27;8.00;;;24.40;35.40;;;;;;4981897;28;20050;-62
2022/11/28 11:25:54;;;;;;;10.75;7.82;;;24.40;35.30;;;;;;5001090;28;20066;-62
2022/11/28 11:28:31;;;;;;;11.70;8.15;;;24.40;35.20;;;;;;4998136;28;20057;-62
2022/11/28 11:31:00;;;;;;;10.10;7.47;;;24.40;35.20;;;;;;5000219;28;20050;-63
2022/11/28 11:33:34;;;;;;;12.15;8.68;;;24.40;35.10;;;;;;4993420;28;20782;-63
2022/11/28 11:36:03;;;;;;;9.93;7.13;;;24.40;35.00;;;;;;5001401;28;20058;-62
2022/11/28 11:38:34;;;;;;;10.73;7.95;;;24.40;35.00;;;;;;4984767;28;20507;-62
2022/11/28 11:41:20;;;;;;;10.27;8.15;;;24.40;34.90;;;;;;4998610;28;20053;-63
2022/11/28 11:43:47;;;;;;;10.60;7.32;;;24.40;34.90;;;;;;4998652;28;20050;-62
2022/11/28 11:46:15;;;;;;;13.98;8.10;;;24.40;34.90;;;;;;4982342;28;20420;-62
2022/11/28 11:48:46;;;;;;;13.80;9.07;;;24.40;35.00;;;;;;4997809;28;20089;-62
2022/11/28 11:51:29;;;;;;;12.48;7.97;;;24.40;35.00;;;;;;4996408;28;20052;-62
2022/11/28 11:54:19;;;;;;;14.13;8.70;;;24.40;35.00;;;;;;4979112;28;20431;-62
2022/11/28 11:56:49;;;;;;;11.38;8.52;;;24.40;35.10;;;;;;4999041;28;21373;-62
2022/11/28 11:59:44;;;;;;;13.73;9.05;;;24.40;35.00;;;;;;5000249;28;20053;-62
2022/11/28 12:02:18;;;;;;;;;;;24.40;35.20;;;;;;4996953;28;20041;-62
2022/11/28 12:04:49;;;;;;;10.73;8.25;;;24.40;35.50;;;;;;4996168;28;19922;-62
2022/11/28 12:07:29;;;;;;;12.40;8.57;;;24.30;35.60;;;;;;4975107;28;20042;-62
2022/11/28 12:09:58;;;;;;;12.95;8.43;;;24.30;35.80;;;;;;4998011;28;20077;-64
2022/11/28 12:12:35;;;;;;;10.35;8.45;;;24.30;35.80;;;;;;4999350;28;20045;-61
2022/11/28 12:15:03;;;;;;;13.93;9.45;;;24.30;35.90;;;;;;4996071;28;20319;-62
2022/11/28 12:17:55;;;;;;;18.85;9.07;;;24.30;36.00;;;;;;5002202;28;20445;-65
2022/11/28 12:20:58;;;;;;;12.23;8.60;;;24.40;36.00;;;;;;4985965;28;20520;-62
2022/11/28 12:23:39;;;;;;;11.73;8.60;;;24.40;36.10;;;;;;4998927;28;20049;-62
2022/11/28 12:26:19;;;;;;;15.00;9.32;;;24.40;36.10;;;;;;5000012;28;20129;-63
2022/11/28 12:29:06;;;;;;;12.23;8.65;;;24.30;36.00;;;;;;4998977;28;20057;-62
2022/11/28 12:32:04;;;;;;;15.82;9.30;;;24.30;36.00;;;;;;4998916;28;20060;-62
2022/11/28 12:34:47;;;;;;;12.38;8.73;;;24.30;36.20;;;;;;4996736;28;20054;-67
2022/11/28 12:37:44;;;;;;;13.27;8.88;;;24.30;36.10;;;;;;5001799;28;20049;-66
2022/11/28 12:41:00;;;;;;;15.63;9.77;;;24.30;36.10;;;;;;4994570;28;20056;-61
2022/11/28 12:43:57;;;;;;;14.25;9.57;;;24.30;36.10;;;;;;4991175;28;20696;-63
2022/11/28 12:46:50;;;;;;;12.57;8.95;;;24.30;36.10;;;;;;4977069;28;20463;-62
2022/11/28 12:49:39;;;;;;;13.20;9.73;;;24.30;36.10;;;;;;4995183;28;20193;-65
2022/11/28 12:52:45;;;;;;;13.18;9.02;;;24.30;36.10;;;;;;4978832;28;20495;-63
2022/11/28 12:55:32;;;;;;;13.23;9.07;;;24.30;35.90;;;;;;4997391;28;20439;-63
2022/11/28 12:58:20;;;;;;;14.80;9.55;;;24.20;35.70;;;;;;4995496;28;20510;-66
2022/11/28 13:00:58;;;;;;;16.67;9.38;;;24.20;35.90;;;;;;4975136;28;20056;-65
2022/11/28 13:03:55;;;;;;;15.27;10.07;;;24.20;36.20;;;;;;4995356;28;20061;-66
2022/11/28 13:06:50;;;;;;;16.90;10.80;;;24.20;36.10;;;;;;4994813;28;20046;-65
2022/11/28 13:09:33;;;;;;;15.90;10.15;;;24.20;36.20;;;;;;4995646;28;20046;-63
2022/11/28 13:12:28;;;;;;;13.43;8.90;;;24.20;36.20;;;;;;4997103;28;20488;-64
2022/11/28 13:14:59;;;;;;;15.55;10.02;;;24.20;36.30;;;;;;4993677;28;20714;-60
2022/11/28 13:17:52;;;;;;;14.90;9.90;;;24.20;36.40;;;;;;4996606;28;20053;-62
2022/11/28 13:20:40;;;;;;;17.33;9.55;;;24.20;36.30;;;;;;4980847;28;20053;-61
2022/11/28 13:23:27;;;;;;;12.77;9.20;;;24.20;36.30;;;;;;4995080;28;20145;-63
2022/11/28 13:26:22;;;;;;;19.23;10.32;;;24.20;36.40;;;;;;4993565;28;20069;-63